Alamance, North Carolina
Current Conditions -  °F | °C
As of 12:54 AM on Wednesday 22 Oct 2014 (Local Time) from KBUY Reporting Station
Clear Clear  
Wind Chill: 51°   Ceiling: Unl
Heat Index: 51°   Visibility: 10mi
Dew Point: 38°   Wind: 6mph
Humidity: 61%   Direction: 270°W
Pressure: 29.96"   Gusts: NA
Location:  36.04°N, 79.49°W
Report Text: KBUY 220454Z AUTO 27005KT 10SM CLR 11/03 A2996 RMK AO2 SLP142 T01060033 402330078
Loading
Personal Weather Stations






























Interactive Weather Map New forecast layout! Learn more

10-Day Weather Forecast

Advertisements
Track Severe Weather on mobile